createdAt,value
2022-11-01T00:02:01.721Z,15.30
2022-11-01T00:04:30.083Z,15.20
2022-11-01T00:06:59.772Z,15.00
2022-11-01T00:09:27.951Z,15.10
2022-11-01T00:11:56.151Z,15.00
2022-11-01T00:14:24.422Z,14.90
2022-11-01T00:16:52.499Z,14.80
2022-11-01T00:19:20.946Z,14.70
2022-11-01T00:21:49.153Z,14.70
2022-11-01T00:24:18.918Z,14.70
2022-11-01T00:29:20.197Z,14.80
2022-11-01T00:31:48.427Z,14.80
2022-11-01T00:34:17.206Z,14.80
2022-11-01T00:36:45.363Z,14.70
2022-11-01T00:39:14.778Z,14.60
2022-11-01T00:41:44.491Z,14.70
2022-11-01T00:44:12.808Z,14.90
2022-11-01T00:46:41.075Z,15.10
2022-11-01T00:49:09.209Z,15.00
2022-11-01T00:51:37.468Z,15.00
2022-11-01T00:54:05.763Z,15.00
2022-11-01T00:56:35.630Z,14.90
2022-11-01T00:59:05.410Z,14.90
2022-11-01T01:01:33.731Z,14.70
2022-11-01T01:04:02.003Z,14.60
2022-11-01T01:06:30.315Z,14.60
2022-11-01T01:09:00.189Z,14.50
2022-11-01T01:11:28.611Z,14.50
2022-11-01T01:13:57.008Z,14.50
2022-11-01T01:16:26.719Z,14.50
2022-11-01T01:18:55.883Z,14.50
2022-11-01T01:21:23.939Z,14.60
2022-11-01T01:23:52.161Z,14.50
2022-11-01T01:26:20.983Z,14.40
2022-11-01T01:31:22.189Z,14.60
2022-11-01T01:33:51.976Z,14.50
2022-11-01T01:36:20.214Z,14.40
2022-11-01T01:38:48.368Z,14.50
2022-11-01T01:41:34.725Z,14.40
2022-11-01T01:44:03.812Z,14.40
2022-11-01T01:46:31.904Z,14.40
2022-11-01T01:49:01.804Z,14.40
2022-11-01T01:51:30.872Z,14.40
2022-11-01T01:54:00.046Z,14.40
2022-11-01T01:56:33.199Z,14.30
2022-11-01T01:59:04.656Z,14.20
2022-11-01T02:01:34.539Z,14.30
2022-11-01T02:04:06.104Z,14.30
2022-11-01T02:06:35.708Z,14.10
2022-11-01T02:09:07.468Z,13.90
2022-11-01T02:11:37.494Z,14.00
2022-11-01T02:14:06.015Z,14.00
2022-11-01T02:16:44.370Z,13.90
2022-11-01T02:19:32.250Z,13.70
2022-11-01T02:22:06.012Z,13.60
2022-11-01T02:25:21.415Z,13.50
2022-11-01T02:28:08.331Z,13.50
2022-11-01T02:30:45.880Z,13.50
2022-11-01T02:33:28.598Z,13.30
2022-11-01T02:36:03.091Z,13.40
2022-11-01T02:38:39.290Z,13.40
2022-11-01T02:41:12.301Z,13.20
2022-11-01T02:43:47.525Z,13.40
2022-11-01T02:46:35.814Z,13.40
2022-11-01T02:49:05.971Z,13.40
2022-11-01T02:51:35.570Z,13.40
2022-11-01T02:54:07.242Z,13.30
2022-11-01T02:56:35.915Z,13.30
2022-11-01T02:59:04.420Z,13.40
2022-11-01T03:01:36.363Z,13.40
2022-11-01T03:04:06.412Z,13.30
2022-11-01T03:06:37.643Z,13.30
2022-11-01T03:09:11.240Z,13.20
2022-11-01T03:11:49.571Z,13.10
2022-11-01T03:14:25.441Z,13.10
2022-11-01T03:16:59.753Z,13.00
2022-11-01T03:19:38.141Z,13.10
2022-11-01T03:22:11.386Z,13.20
2022-11-01T03:24:46.229Z,13.10
2022-11-01T03:27:20.910Z,13.00
2022-11-01T03:29:57.289Z,13.00
2022-11-01T03:32:29.021Z,13.10
2022-11-01T03:35:01.653Z,13.10
2022-11-01T03:37:32.764Z,13.20
2022-11-01T03:40:04.869Z,13.30
2022-11-01T03:42:34.422Z,13.30
2022-11-01T03:45:07.580Z,13.40
2022-11-01T03:47:36.010Z,13.30
2022-11-01T03:50:19.941Z,13.10
2022-11-01T03:52:48.492Z,13.20
2022-11-01T03:55:21.191Z,13.30
2022-11-01T03:57:50.340Z,13.30
2022-11-01T04:00:19.842Z,13.30
2022-11-01T04:02:48.280Z,13.40
2022-11-01T04:05:18.751Z,13.30
2022-11-01T04:07:47.130Z,13.20
2022-11-01T04:10:15.821Z,13.10
2022-11-01T04:12:46.111Z,13.00
2022-11-01T04:15:33.201Z,12.90
2022-11-01T04:18:24.570Z,13.10
2022-11-01T04:20:54.381Z,13.00
2022-11-01T04:23:22.704Z,13.00
2022-11-01T04:28:18.672Z,13.10
2022-11-01T04:30:46.594Z,13.00
2022-11-01T04:33:14.631Z,12.90
2022-11-01T04:35:42.580Z,12.90
2022-11-01T04:38:12.703Z,12.90
2022-11-01T04:40:41.332Z,12.90
2022-11-01T04:43:09.637Z,12.90
2022-11-01T04:45:37.760Z,12.80
2022-11-01T04:48:07.780Z,12.50
2022-11-01T04:50:36.470Z,12.50
2022-11-01T04:53:04.702Z,12.40
2022-11-01T04:55:34.610Z,12.50
2022-11-01T04:58:02.633Z,12.40
2022-11-01T05:00:31.990Z,12.20
2022-11-01T05:03:04.280Z,12.20
2022-11-01T05:05:33.079Z,12.20
2022-11-01T05:10:38.703Z,12.20
2022-11-01T05:13:07.079Z,12.10
2022-11-01T05:15:39.957Z,12.20
2022-11-01T05:18:11.841Z,12.30
2022-11-01T05:20:39.790Z,12.20
2022-11-01T05:23:07.722Z,12.30
2022-11-01T05:25:38.346Z,12.30
2022-11-01T05:28:08.939Z,12.40
2022-11-01T05:30:37.871Z,12.20
2022-11-01T05:33:07.134Z,12.00
2022-11-01T05:35:36.150Z,12.20
2022-11-01T05:38:05.272Z,12.20
2022-11-01T05:40:34.069Z,12.10
2022-11-01T05:43:04.006Z,12.10
2022-11-01T05:45:32.374Z,12.00
2022-11-01T05:48:03.741Z,12.00
2022-11-01T05:50:31.760Z,11.90
2022-11-01T05:53:08.193Z,11.90
2022-11-01T05:55:36.780Z,12.00
2022-11-01T05:58:06.555Z,12.10
2022-11-01T06:00:35.171Z,12.00
2022-11-01T06:03:03.873Z,11.90
2022-11-01T06:05:32.501Z,11.90
2022-11-01T06:08:02.179Z,12.00
2022-11-01T06:10:30.269Z,12.00
2022-11-01T06:12:58.937Z,12.00
2022-11-01T06:15:28.523Z,12.00
2022-11-01T06:17:57.539Z,11.90
2022-11-01T06:20:26.471Z,12.00
2022-11-01T06:22:54.381Z,12.20
2022-11-01T06:25:22.620Z,12.10
2022-11-01T06:27:50.567Z,12.00
2022-11-01T06:30:18.724Z,12.10
2022-11-01T06:32:47.843Z,12.20
2022-11-01T06:35:15.803Z,12.30
2022-11-01T06:37:43.350Z,12.30
2022-11-01T06:40:13.191Z,12.40
2022-11-01T06:42:45.468Z,12.40
2022-11-01T06:45:15.168Z,12.50
2022-11-01T06:47:48.298Z,12.50
2022-11-01T06:50:16.056Z,12.50
2022-11-01T06:52:43.567Z,12.60
2022-11-01T06:55:11.645Z,12.50
2022-11-01T06:57:39.211Z,12.50
2022-11-01T07:00:09.287Z,12.50
2022-11-01T07:02:37.356Z,12.50
2022-11-01T07:05:07.488Z,12.50
2022-11-01T07:07:35.199Z,12.40
2022-11-01T07:10:02.824Z,12.40
2022-11-01T07:12:30.623Z,12.50
2022-11-01T07:14:58.233Z,12.60
2022-11-01T07:17:26.607Z,12.70
2022-11-01T07:19:54.229Z,12.80
2022-11-01T07:22:23.317Z,12.80
2022-11-01T07:24:51.238Z,12.90
2022-11-01T07:27:20.564Z,13.00
2022-11-01T07:29:48.553Z,13.10
2022-11-01T07:32:16.100Z,13.20
2022-11-01T07:34:44.329Z,13.00
2022-11-01T07:37:11.870Z,13.00
2022-11-01T07:39:40.867Z,13.10
2022-11-01T07:42:08.528Z,13.40
2022-11-01T07:44:36.214Z,13.60
2022-11-01T07:47:03.889Z,13.60
2022-11-01T07:49:31.640Z,13.80
2022-11-01T07:52:02.789Z,13.90
2022-11-01T07:54:30.947Z,14.00
2022-11-01T07:56:59.950Z,14.00
2022-11-01T07:59:27.672Z,14.10
2022-11-01T08:01:55.380Z,14.10
2022-11-01T08:04:23.502Z,14.10
2022-11-01T08:06:52.318Z,14.10
2022-11-01T08:09:22.275Z,14.20
2022-11-01T08:11:50.227Z,14.30
2022-11-01T08:14:19.770Z,14.30
2022-11-01T08:16:50.355Z,14.30
2022-11-01T08:19:18.103Z,14.40
2022-11-01T08:21:45.846Z,14.50
2022-11-01T08:24:13.756Z,14.70
2022-11-01T08:26:41.388Z,14.70
2022-11-01T08:29:09.380Z,14.80
2022-11-01T08:31:41.543Z,14.80
2022-11-01T08:34:13.195Z,14.90
2022-11-01T08:36:44.622Z,15.00
2022-11-01T08:39:12.639Z,15.10
2022-11-01T08:41:40.551Z,15.20
2022-11-01T08:44:08.470Z,15.20
2022-11-01T08:46:36.137Z,15.30
2022-11-01T08:49:05.259Z,15.40
2022-11-01T08:51:32.902Z,15.50
2022-11-01T08:54:00.687Z,15.50
2022-11-01T08:56:29.720Z,15.70
2022-11-01T08:58:58.031Z,15.80
2022-11-01T09:01:27.328Z,15.90
2022-11-01T09:03:57.321Z,16.00
2022-11-01T09:06:29.008Z,16.20
2022-11-01T09:08:59.126Z,16.30
2022-11-01T09:11:26.916Z,16.50
2022-11-01T09:13:54.729Z,16.50
2022-11-01T09:16:22.328Z,16.60
2022-11-01T09:18:50.423Z,16.70
2022-11-01T09:21:18.485Z,16.80
2022-11-01T09:23:47.603Z,16.80
2022-11-01T09:26:15.345Z,16.90
2022-11-01T09:28:42.939Z,16.90
2022-11-01T09:31:20.949Z,16.90
2022-11-01T09:33:49.225Z,16.90
2022-11-01T09:36:16.883Z,17.00
2022-11-01T09:38:44.565Z,17.10
2022-11-01T09:41:28.182Z,17.10
2022-11-01T09:43:58.408Z,17.20
2022-11-01T09:46:31.997Z,17.30
2022-11-01T09:49:00.794Z,17.40
2022-11-01T09:51:29.977Z,17.40
2022-11-01T09:54:01.451Z,17.50
2022-11-01T09:56:35.007Z,17.50
2022-11-01T09:59:17.051Z,17.40
2022-11-01T10:01:54.369Z,17.40
2022-11-01T10:04:47.102Z,17.40
2022-11-01T10:07:22.846Z,17.40
2022-11-01T10:09:55.888Z,17.50
2022-11-01T10:12:41.739Z,17.50
2022-11-01T10:15:32.939Z,17.60
2022-11-01T10:18:10.523Z,17.80
2022-11-01T10:20:40.857Z,18.00
2022-11-01T10:23:12.526Z,18.00
2022-11-01T10:25:49.065Z,18.10
2022-11-01T10:28:26.312Z,18.20
2022-11-01T10:31:17.021Z,18.50
2022-11-01T10:33:49.810Z,18.80
2022-11-01T10:36:21.681Z,19.00
2022-11-01T10:39:54.045Z,19.10
2022-11-01T10:41:48.319Z,19.10
2022-11-01T10:44:28.516Z,19.10
2022-11-01T10:46:59.011Z,19.10
2022-11-01T10:49:52.914Z,19.30
2022-11-01T10:52:25.838Z,19.50
2022-11-01T10:54:56.265Z,19.50
2022-11-01T10:57:30.987Z,19.60
2022-11-01T11:00:05.438Z,19.60
2022-11-01T11:02:38.912Z,19.60
2022-11-01T11:05:07.458Z,19.50
2022-11-01T11:07:35.398Z,19.50
2022-11-01T11:10:04.266Z,19.50
2022-11-01T11:12:32.392Z,19.50
2022-11-01T11:15:16.188Z,19.40
2022-11-01T11:17:46.360Z,19.40
2022-11-01T11:20:26.714Z,19.50
2022-11-01T11:22:54.892Z,19.50
2022-11-01T11:25:30.883Z,19.50
2022-11-01T11:27:59.496Z,19.50
2022-11-01T11:30:32.594Z,19.60
2022-11-01T11:33:02.745Z,19.80
2022-11-01T11:35:33.082Z,20.00
2022-11-01T11:38:04.123Z,20.20
2022-11-01T11:40:45.905Z,20.20
2022-11-01T11:43:25.943Z,20.20
2022-11-01T11:46:13.832Z,20.10
2022-11-01T11:48:52.641Z,20.10
2022-11-01T11:51:21.971Z,20.20
2022-11-01T11:54:22.015Z,20.20
2022-11-01T11:56:52.362Z,20.30
2022-11-01T11:59:26.424Z,20.40
2022-11-01T12:02:05.336Z,20.30
2022-11-01T12:04:40.554Z,20.30
2022-11-01T12:07:27.177Z,20.30
2022-11-01T12:09:56.356Z,20.20
2022-11-01T12:12:26.764Z,20.20
2022-11-01T12:14:56.118Z,20.10
2022-11-01T12:17:33.642Z,20.10
2022-11-01T12:20:08.097Z,20.10
2022-11-01T12:22:38.683Z,20.20
2022-11-01T12:25:11.277Z,20.20
2022-11-01T12:27:42.310Z,20.30
2022-11-01T12:30:17.906Z,20.40
2022-11-01T12:32:51.107Z,20.50
2022-11-01T12:35:26.749Z,20.60
2022-11-01T12:38:05.057Z,20.70
2022-11-01T12:40:37.275Z,20.80
2022-11-01T12:43:15.659Z,20.80
2022-11-01T12:45:50.470Z,20.80
2022-11-01T12:48:26.594Z,20.80
2022-11-01T12:51:00.608Z,20.90
2022-11-01T12:53:32.907Z,20.90
2022-11-01T12:56:01.196Z,20.90
2022-11-01T12:58:35.212Z,21.00
2022-11-01T13:01:24.436Z,21.00
2022-11-01T13:04:13.917Z,21.00
2022-11-01T13:07:21.766Z,21.00
2022-11-01T13:10:03.271Z,21.00
2022-11-01T13:12:42.586Z,21.00
2022-11-01T13:15:17.305Z,21.00
2022-11-01T13:17:58.278Z,21.00
2022-11-01T13:20:38.324Z,21.00
2022-11-01T13:23:15.967Z,21.10
2022-11-01T13:25:51.418Z,21.10
2022-11-01T13:28:46.698Z,21.20
2022-11-01T13:31:25.607Z,21.20
2022-11-01T13:34:01.107Z,21.20
2022-11-01T13:36:46.937Z,21.20
2022-11-01T13:39:24.766Z,21.20
2022-11-01T13:41:57.702Z,21.10
2022-11-01T13:44:29.866Z,21.10
2022-11-01T13:47:29.737Z,21.00
2022-11-01T13:50:51.917Z,20.90
2022-11-01T13:53:28.618Z,20.90
2022-11-01T13:56:01.438Z,20.90
2022-11-01T13:58:31.727Z,20.90
2022-11-01T14:01:27.185Z,20.90
2022-11-01T14:04:34.856Z,20.90
2022-11-01T14:07:14.782Z,20.90
2022-11-01T14:09:49.036Z,20.80
2022-11-01T14:12:35.396Z,20.80
2022-11-01T14:15:25.606Z,20.70
2022-11-01T14:18:08.483Z,20.60
2022-11-01T14:20:57.489Z,20.40
2022-11-01T14:23:59.678Z,20.40
2022-11-01T14:26:50.109Z,20.30
2022-11-01T14:29:18.823Z,20.30
2022-11-01T14:31:51.619Z,20.20
2022-11-01T14:34:30.246Z,20.20
2022-11-01T14:37:02.054Z,20.10
2022-11-01T14:39:37.239Z,20.10
2022-11-01T14:42:33.807Z,20.10
2022-11-01T14:45:07.154Z,20.00
2022-11-01T14:47:39.570Z,20.00
2022-11-01T14:52:57.201Z,20.00
2022-11-01T14:55:29.994Z,19.90
2022-11-01T14:58:16.453Z,19.80
2022-11-01T15:00:44.781Z,19.80
2022-11-01T15:03:13.212Z,19.70
2022-11-01T15:05:49.714Z,19.70
2022-11-01T15:08:28.586Z,19.70
2022-11-01T15:11:00.230Z,19.60
2022-11-01T15:13:33.848Z,19.60
2022-11-01T15:16:13.541Z,19.60
2022-11-01T15:18:47.136Z,19.50
2022-11-01T15:23:51.665Z,19.40
2022-11-01T15:26:23.968Z,19.40
2022-11-01T15:28:56.273Z,19.30
2022-11-01T15:31:24.714Z,19.30
2022-11-01T15:33:57.694Z,19.20
2022-11-01T15:36:29.845Z,19.20
2022-11-01T15:39:00.191Z,19.10
2022-11-01T15:41:29.867Z,19.10
2022-11-01T15:44:00.970Z,19.00
2022-11-01T15:46:33.086Z,19.00
2022-11-01T15:49:05.753Z,19.00
2022-11-01T15:51:45.893Z,19.00
2022-11-01T15:54:24.704Z,19.00
2022-11-01T15:56:58.060Z,18.90
2022-11-01T15:59:33.516Z,18.90
2022-11-01T16:02:04.571Z,18.80
2022-11-01T16:04:40.078Z,18.80
2022-11-01T16:07:14.641Z,18.80
2022-11-01T16:09:46.316Z,18.70
2022-11-01T16:12:20.445Z,18.70
2022-11-01T16:14:57.715Z,18.70
2022-11-01T16:17:33.379Z,18.70
2022-11-01T16:20:04.969Z,18.70
2022-11-01T16:22:38.697Z,18.60
2022-11-01T16:25:20.621Z,18.60
2022-11-01T16:27:54.772Z,18.60
2022-11-01T16:30:48.901Z,18.60
2022-11-01T16:33:23.021Z,18.60
2022-11-01T16:35:52.847Z,18.60
2022-11-01T16:38:29.636Z,18.50
2022-11-01T16:41:00.125Z,18.50
2022-11-01T16:43:33.776Z,18.50
2022-11-01T16:46:05.280Z,18.50
2022-11-01T16:48:36.190Z,18.50
2022-11-01T16:51:04.731Z,18.40
2022-11-01T16:53:32.822Z,18.40
2022-11-01T16:56:35.038Z,18.30
2022-11-01T16:58:59.412Z,18.30
2022-11-01T17:01:34.366Z,18.30
2022-11-01T17:04:04.956Z,18.30
2022-11-01T17:06:38.598Z,18.30
2022-11-01T17:09:13.356Z,18.30
2022-11-01T17:11:46.358Z,18.30
2022-11-01T17:14:17.814Z,18.30
2022-11-01T17:16:48.811Z,18.30
2022-11-01T17:19:23.281Z,18.30
2022-11-01T17:21:53.234Z,18.30
2022-11-01T17:24:23.446Z,18.20
2022-11-01T17:26:53.041Z,18.20
2022-11-01T17:29:21.113Z,18.20
2022-11-01T17:31:50.508Z,18.20
2022-11-01T17:34:19.395Z,18.20
2022-11-01T17:36:49.546Z,18.20
2022-11-01T17:39:17.887Z,18.20
2022-11-01T17:41:45.860Z,18.20
2022-11-01T17:44:13.975Z,18.20
2022-11-01T17:46:43.784Z,18.10
2022-11-01T17:49:15.960Z,18.10
2022-11-01T17:51:44.183Z,18.10
2022-11-01T17:54:12.134Z,18.10
2022-11-01T17:56:41.043Z,18.10
2022-11-01T17:59:09.478Z,18.10
2022-11-01T18:01:39.003Z,18.10
2022-11-01T18:04:07.133Z,18.10
2022-11-01T18:06:36.800Z,18.10
2022-11-01T18:09:18.470Z,18.10
2022-11-01T18:11:51.442Z,18.10
2022-11-01T18:14:23.052Z,18.00
2022-11-01T18:16:57.074Z,18.00
2022-11-01T18:19:39.327Z,17.90
2022-11-01T18:22:17.239Z,17.90
2022-11-01T18:24:51.932Z,17.90
2022-11-01T18:27:24.525Z,17.90
2022-11-01T18:29:52.887Z,17.90
2022-11-01T18:32:27.907Z,17.90
2022-11-01T18:35:00.203Z,17.90
2022-11-01T18:37:36.107Z,17.80
2022-11-01T18:40:13.887Z,17.80
2022-11-01T18:42:42.967Z,17.80
2022-11-01T18:47:57.948Z,17.80
2022-11-01T18:50:27.275Z,17.70
2022-11-01T18:53:03.418Z,17.70
2022-11-01T18:55:33.713Z,17.60
2022-11-01T18:58:15.758Z,17.50
2022-11-01T19:00:44.266Z,17.50
2022-11-01T19:03:13.955Z,17.50
2022-11-01T19:05:42.676Z,17.50
2022-11-01T19:08:23.740Z,17.50
2022-11-01T19:10:53.048Z,17.50
2022-11-01T19:13:27.917Z,17.40
2022-11-01T19:15:58.256Z,17.40
2022-11-01T19:18:26.731Z,17.40
2022-11-01T19:20:55.910Z,17.40
2022-11-01T19:23:34.056Z,17.30
2022-11-01T19:26:03.138Z,17.30
2022-11-01T19:28:35.906Z,17.30
2022-11-01T19:31:15.389Z,17.30
2022-11-01T19:33:47.307Z,17.30
2022-11-01T19:36:19.517Z,17.20
2022-11-01T19:38:53.426Z,17.20
2022-11-01T19:41:26.796Z,17.20
2022-11-01T19:43:58.297Z,17.20
2022-11-01T19:46:28.219Z,17.20
2022-11-01T19:48:56.587Z,17.20
2022-11-01T19:51:26.797Z,17.20
2022-11-01T19:53:56.896Z,17.20
2022-11-01T19:56:31.317Z,17.20
2022-11-01T19:59:00.982Z,17.20
2022-11-01T20:01:37.808Z,17.10
2022-11-01T20:04:14.551Z,17.00
2022-11-01T20:06:48.866Z,17.00
2022-11-01T20:09:24.626Z,17.00
2022-11-01T20:11:54.518Z,17.00
2022-11-01T20:14:28.837Z,17.00
2022-11-01T20:16:57.137Z,17.00
2022-11-01T20:19:28.077Z,17.00
2022-11-01T20:21:56.346Z,17.00
2022-11-01T20:24:27.745Z,17.00
2022-11-01T20:26:56.817Z,17.00
2022-11-01T20:33:14.917Z,16.90
2022-11-01T20:35:43.537Z,16.90
2022-11-01T20:38:11.702Z,16.90
2022-11-01T20:40:42.059Z,16.90
2022-11-01T20:43:11.024Z,16.90
2022-11-01T20:45:39.808Z,16.80
2022-11-01T20:48:10.046Z,16.80
2022-11-01T20:50:38.908Z,16.80
2022-11-01T20:53:07.461Z,16.80
2022-11-01T20:55:36.786Z,16.80
2022-11-01T20:58:06.976Z,16.70
2022-11-01T21:00:35.866Z,16.60
2022-11-01T21:03:13.357Z,16.60
2022-11-01T21:05:43.191Z,16.50
2022-11-01T21:08:24.009Z,16.50
2022-11-01T21:10:54.951Z,16.50
2022-11-01T21:13:28.087Z,16.60
2022-11-01T21:15:57.440Z,16.60
2022-11-01T21:18:42.057Z,16.60
2022-11-01T21:21:31.096Z,16.60
2022-11-01T21:24:01.809Z,16.70
2022-11-01T21:26:32.266Z,16.60
2022-11-01T21:29:07.216Z,16.70
2022-11-01T21:31:38.224Z,16.70
2022-11-01T21:34:26.537Z,16.60
2022-11-01T21:36:56.886Z,16.60
2022-11-01T21:39:27.729Z,16.50
2022-11-01T21:41:57.538Z,16.50
2022-11-01T21:44:29.258Z,16.40
2022-11-01T21:47:01.056Z,16.40
2022-11-01T21:49:31.620Z,16.40
2022-11-01T21:52:01.469Z,16.40
2022-11-01T21:54:31.146Z,16.40
2022-11-01T21:56:59.304Z,16.30
2022-11-01T21:59:29.598Z,16.30
2022-11-01T22:02:00.003Z,16.20
2022-11-01T22:04:32.307Z,16.20
2022-11-01T22:07:01.476Z,16.10
2022-11-01T22:09:30.100Z,16.10
2022-11-01T22:11:59.346Z,16.10
2022-11-01T22:14:29.139Z,16.10
2022-11-01T22:16:57.397Z,16.10
2022-11-01T22:19:25.519Z,16.20
2022-11-01T22:21:53.627Z,16.20
2022-11-01T22:24:21.786Z,16.30
2022-11-01T22:26:49.767Z,16.20
2022-11-01T22:29:18.221Z,16.20
2022-11-01T22:31:47.550Z,16.20
2022-11-01T22:34:17.593Z,16.20
2022-11-01T22:36:45.641Z,16.30
2022-11-01T22:39:17.431Z,16.30
2022-11-01T22:41:45.548Z,16.30
2022-11-01T22:44:15.453Z,16.10
2022-11-01T22:46:53.614Z,16.10
2022-11-01T22:49:28.981Z,16.20
2022-11-01T22:51:59.981Z,16.20
2022-11-01T22:54:34.622Z,16.30
2022-11-01T22:57:11.311Z,16.20
2022-11-01T22:59:40.451Z,16.30
2022-11-01T23:02:27.349Z,16.30
2022-11-01T23:05:20.792Z,16.20
2022-11-01T23:07:50.177Z,16.10
2022-11-01T23:10:24.633Z,16.10
2022-11-01T23:13:14.841Z,16.20
2022-11-01T23:15:43.061Z,16.20
2022-11-01T23:18:19.510Z,16.20
2022-11-01T23:20:53.860Z,16.10
2022-11-01T23:23:22.332Z,16.10
2022-11-01T23:25:50.781Z,16.20
2022-11-01T23:28:19.250Z,16.20
2022-11-01T23:30:48.911Z,16.20
2022-11-01T23:33:20.030Z,16.20
2022-11-01T23:35:52.711Z,16.20
2022-11-01T23:38:23.331Z,16.20
2022-11-01T23:40:54.273Z,16.10
2022-11-01T23:43:25.181Z,16.10
2022-11-01T23:45:53.291Z,16.10
2022-11-01T23:48:23.991Z,16.10
2022-11-01T23:50:53.491Z,16.20
2022-11-01T23:53:27.471Z,16.10
2022-11-01T23:55:55.591Z,16.20
